createdAt,value
2019-01-05T00:02:08.436Z,101755.05
2019-01-05T00:04:56.663Z,101738.35
2019-01-05T00:07:26.767Z,101737.11
2019-01-05T00:10:14.789Z,101735.02
2019-01-05T00:13:01.127Z,101727.33
2019-01-05T00:15:47.923Z,101716.59
2019-01-05T00:18:20.836Z,101701.18
2019-01-05T00:21:03.681Z,101695.14
2019-01-05T00:23:39.775Z,101705.52
2019-01-05T00:26:22.112Z,101692.61
2019-01-05T00:28:55.249Z,101686.16
2019-01-05T00:31:31.572Z,101686.64
2019-01-05T00:34:13.847Z,101689.64
2019-01-05T00:36:48.600Z,101681.07
2019-01-05T00:39:30.924Z,101682.77
2019-01-05T00:42:00.897Z,101675.48
2019-01-05T00:44:40.107Z,101680.66
2019-01-05T00:47:22.889Z,101674.70
2019-01-05T00:50:01.974Z,101669.58
2019-01-05T00:52:48.632Z,101669.99
2019-01-05T00:55:35.247Z,101664.91
2019-01-05T00:58:14.613Z,101662.70
2019-01-05T01:00:59.816Z,101659.33
2019-01-05T01:03:41.681Z,101660.13
2019-01-05T01:06:11.761Z,101646.83
2019-01-05T01:08:41.944Z,101652.00
2019-01-05T01:11:14.736Z,101649.42
2019-01-05T01:13:45.024Z,101642.13
2019-01-05T01:16:17.808Z,101655.50
2019-01-05T01:18:53.956Z,101652.12
2019-01-05T01:21:29.720Z,101643.09
2019-01-05T01:24:09.160Z,101632.34
2019-01-05T01:26:48.452Z,101628.03
2019-01-05T01:29:18.630Z,101643.16
2019-01-05T01:32:00.582Z,101639.75
2019-01-05T01:34:30.684Z,101626.01
2019-01-05T01:37:19.380Z,101633.30
2019-01-05T01:39:51.903Z,101623.42
2019-01-05T01:42:38.879Z,101619.63
2019-01-05T01:45:25.070Z,101604.14
2019-01-05T01:47:55.838Z,101596.39
2019-01-05T01:50:43.082Z,101592.11
2019-01-05T01:53:17.390Z,101595.18
2019-01-05T01:55:59.245Z,101586.59
2019-01-05T01:58:38.531Z,101590.13
2019-01-05T02:01:20.291Z,101578.52
2019-01-05T02:03:53.571Z,101573.39
2019-01-05T02:06:29.775Z,101573.39
2019-01-05T02:09:01.399Z,101565.72
2019-01-05T02:11:48.416Z,101562.30
2019-01-05T02:14:22.479Z,101553.75
2019-01-05T02:16:58.435Z,101555.50
2019-01-05T02:19:30.156Z,101557.74
2019-01-05T02:22:09.479Z,101554.33
2019-01-05T02:25:20.454Z,101562.15
2019-01-05T02:28:08.715Z,101565.68
2019-01-05T02:30:53.880Z,101566.63
2019-01-05T02:34:09.604Z,101551.17
2019-01-05T02:37:04.701Z,101550.83
2019-01-05T02:39:59.903Z,101560.39
2019-01-05T02:42:47.632Z,101563.05
2019-01-05T02:45:49.220Z,101565.75
2019-01-05T02:48:46.019Z,101564.11
2019-01-05T02:51:48.913Z,101564.98
2019-01-05T02:54:52.024Z,101560.77
2019-01-05T02:57:45.183Z,101556.93
2019-01-05T03:00:42.536Z,101551.41
2019-01-05T03:03:45.875Z,101544.61
2019-01-05T03:06:54.088Z,101547.66
2019-01-05T03:10:00.252Z,101550.31
2019-01-05T03:12:36.333Z,101555.48
2019-01-05T03:15:30.669Z,101550.38
2019-01-05T03:18:27.441Z,101553.84
2019-01-05T03:21:24.402Z,101557.78
2019-01-05T03:24:18.967Z,101557.78
2019-01-05T03:27:01.002Z,101553.08
2019-01-05T03:30:12.650Z,101552.23
2019-01-05T03:33:24.762Z,101536.80
2019-01-05T03:36:31.629Z,101546.27
2019-01-05T03:39:22.963Z,101545.39
2019-01-05T03:42:07.132Z,101542.32
2019-01-05T03:45:07.009Z,101545.78
2019-01-05T03:48:00.588Z,101540.22
2019-01-05T03:51:09.400Z,101540.61
2019-01-05T03:54:21.043Z,101530.66
2019-01-05T03:57:00.176Z,101528.07
2019-01-05T04:00:01.714Z,101529.36
2019-01-05T04:03:19.892Z,101523.70
2019-01-05T04:06:45.031Z,101516.45
2019-01-05T04:10:03.124Z,101510.38
2019-01-05T04:13:00.163Z,101517.66
2019-01-05T04:15:55.890Z,101522.41
2019-01-05T04:18:40.815Z,101522.83
2019-01-05T04:21:39.690Z,101518.54
2019-01-05T04:24:27.802Z,101520.67
2019-01-05T04:27:20.853Z,101512.84
2019-01-05T04:29:57.234Z,101518.43
2019-01-05T04:33:07.046Z,101523.07
2019-01-05T04:36:15.895Z,101525.23
2019-01-05T04:39:31.439Z,101516.13
2019-01-05T04:42:31.480Z,101512.21
2019-01-05T04:45:22.309Z,101517.72
2019-01-05T04:48:19.203Z,101523.31
2019-01-05T04:50:58.281Z,101518.95
2019-01-05T04:54:05.108Z,101522.44
2019-01-05T04:56:59.369Z,101519.85
2019-01-05T04:59:53.915Z,101520.61
2019-01-05T05:02:38.895Z,101520.96
2019-01-05T05:05:40.484Z,101519.18
2019-01-05T05:08:22.514Z,101510.10
2019-01-05T05:11:10.921Z,101514.32
2019-01-05T05:14:12.375Z,101511.67
2019-01-05T05:17:00.975Z,101509.50
2019-01-05T05:19:40.163Z,101511.63
2019-01-05T05:22:53.131Z,101517.25
2019-01-05T05:26:02.120Z,101523.29
2019-01-05T05:29:05.008Z,101530.66
2019-01-05T05:32:11.311Z,101537.11
2019-01-05T05:35:19.368Z,101540.50
2019-01-05T05:38:27.700Z,101545.20
2019-01-05T05:41:38.591Z,101547.79
2019-01-05T05:44:59.861Z,101552.08
2019-01-05T05:48:03.323Z,101568.38
2019-01-05T05:51:24.464Z,101570.95
2019-01-05T05:54:32.848Z,101583.45
2019-01-05T05:57:31.619Z,101587.74
2019-01-05T06:00:27.303Z,101589.87
2019-01-05T06:03:18.430Z,101598.84
2019-01-05T06:06:32.811Z,101601.83
2019-01-05T06:09:31.653Z,101585.92
2019-01-05T06:12:22.932Z,101586.27
2019-01-05T06:15:36.635Z,101594.35
2019-01-05T06:18:09.916Z,101600.77
2019-01-05T06:21:19.664Z,101601.56
2019-01-05T06:24:40.255Z,101604.15
2019-01-05T06:27:37.598Z,101607.98
2019-01-05T06:30:39.291Z,101611.36
2019-01-05T06:33:35.008Z,101617.82
2019-01-05T06:36:29.130Z,101620.77
2019-01-05T06:39:20.511Z,101615.12
2019-01-05T06:42:32.707Z,101621.57
2019-01-05T06:45:18.051Z,101619.75
2019-01-05T06:48:37.139Z,101629.54
2019-01-05T06:51:49.375Z,101635.58
2019-01-05T06:54:37.420Z,101639.83
2019-01-05T06:57:38.706Z,101649.20
2019-01-05T07:00:53.051Z,101658.08
2019-01-05T07:04:02.564Z,101658.38
2019-01-05T07:07:27.571Z,101663.46
2019-01-05T07:10:38.451Z,101659.88
2019-01-05T07:13:47.674Z,101666.20
2019-01-05T07:16:47.896Z,101663.89
2019-01-05T07:19:46.148Z,101663.23
2019-01-05T07:22:37.228Z,101676.75
2019-01-05T07:25:36.231Z,101686.87
2019-01-05T07:28:55.238Z,101697.94
2019-01-05T07:31:43.625Z,101689.73
2019-01-05T07:34:37.915Z,101693.45
2019-01-05T07:37:19.719Z,101686.45
2019-01-05T07:40:01.894Z,101689.78
2019-01-05T07:42:51.818Z,101692.98
2019-01-05T07:45:30.868Z,101696.30
2019-01-05T07:48:43.526Z,101697.87
2019-01-05T07:51:47.112Z,101695.22
2019-01-05T07:55:09.003Z,101693.80
2019-01-05T07:57:56.814Z,101684.97
2019-01-05T08:00:59.478Z,101710.00
2019-01-05T08:03:44.636Z,101720.02
2019-01-05T08:06:46.838Z,101738.25
2019-01-05T08:09:34.506Z,101737.24
2019-01-05T08:12:19.395Z,101746.05
2019-01-05T08:15:19.588Z,101746.73
2019-01-05T08:18:10.676Z,101741.48
2019-01-05T08:21:03.661Z,101748.67
2019-01-05T08:24:19.048Z,101749.82
2019-01-05T08:27:26.901Z,101761.66
2019-01-05T08:30:37.994Z,101766.13
2019-01-05T08:33:36.026Z,101768.23
2019-01-05T08:36:27.337Z,101766.95
2019-01-05T08:39:33.687Z,101770.13
2019-01-05T08:42:27.888Z,101768.98
2019-01-05T08:45:38.894Z,101763.64
2019-01-05T08:48:29.814Z,101769.02
2019-01-05T08:51:52.415Z,101772.78
2019-01-05T08:54:54.003Z,101770.43
2019-01-05T08:58:08.059Z,101773.78
2019-01-05T09:01:09.787Z,101772.30
2019-01-05T09:03:57.611Z,101764.83
2019-01-05T09:07:06.527Z,101759.48
2019-01-05T09:10:15.770Z,101757.58
2019-01-05T09:13:20.760Z,101755.22
2019-01-05T09:16:28.387Z,101758.56
2019-01-05T09:19:25.540Z,101757.95
2019-01-05T09:22:40.182Z,101752.53
2019-01-05T09:25:37.639Z,101756.13
2019-01-05T09:28:25.117Z,101758.45
2019-01-05T09:31:34.292Z,101763.41
2019-01-05T09:34:45.279Z,101766.58
2019-01-05T09:37:51.885Z,101763.46
2019-01-05T09:40:46.218Z,101772.63
2019-01-05T09:43:34.314Z,101773.25
2019-01-05T09:46:27.240Z,101772.16
2019-01-05T09:49:35.180Z,101771.54
2019-01-05T09:52:44.748Z,101766.58
2019-01-05T09:55:26.488Z,101765.91
2019-01-05T09:58:11.832Z,101769.91
2019-01-05T10:01:19.044Z,101779.48
2019-01-05T10:04:32.931Z,101788.58
2019-01-05T10:07:18.255Z,101799.44
2019-01-05T10:10:02.661Z,101813.05
2019-01-05T10:12:57.687Z,101808.48
2019-01-05T10:16:14.700Z,101819.02
2019-01-05T10:19:33.503Z,101822.76
2019-01-05T10:22:12.381Z,101818.17
2019-01-05T10:24:51.784Z,101824.83
2019-01-05T10:27:30.626Z,101822.45
2019-01-05T10:30:18.848Z,101818.23
2019-01-05T10:33:33.090Z,101825.69
2019-01-05T10:36:30.651Z,101830.60
2019-01-05T10:39:23.696Z,101841.94
2019-01-05T10:42:30.595Z,101839.35
2019-01-05T10:45:30.747Z,101848.81
2019-01-05T10:48:44.976Z,101844.06
2019-01-05T10:51:40.617Z,101836.77
2019-01-05T10:54:59.175Z,101837.84
2019-01-05T10:58:06.528Z,101843.20
2019-01-05T11:01:11.150Z,101839.53
2019-01-05T11:04:16.962Z,101838.43
2019-01-05T11:07:37.960Z,101838.17
2019-01-05T11:10:35.047Z,101844.29
2019-01-05T11:13:42.989Z,101850.00
2019-01-05T11:16:48.075Z,101853.95
2019-01-05T11:19:58.822Z,101855.70
2019-01-05T11:22:53.339Z,101870.34
2019-01-05T11:25:45.856Z,101878.10
2019-01-05T11:28:40.053Z,101884.07
2019-01-05T11:31:37.505Z,101880.49
2019-01-05T11:34:22.565Z,101878.59
2019-01-05T11:37:23.022Z,101883.14
2019-01-05T11:40:08.027Z,101894.11
2019-01-05T11:42:50.010Z,101890.45
2019-01-05T11:45:55.047Z,101886.37
2019-01-05T11:48:33.627Z,101893.17
2019-01-05T11:51:24.495Z,101894.92
2019-01-05T11:54:15.540Z,101889.30
2019-01-05T12:00:39.724Z,101889.22
2019-01-05T12:03:43.446Z,101886.63
2019-01-05T12:06:44.956Z,101889.70
2019-01-05T12:09:37.600Z,101888.00
2019-01-05T12:12:50.990Z,101888.00
2019-01-05T12:15:40.458Z,101894.13
2019-01-05T12:18:46.451Z,101893.59
2019-01-05T12:22:00.534Z,101902.67
2019-01-05T12:24:50.454Z,101906.97
2019-01-05T12:27:35.014Z,101913.89
2019-01-05T12:30:34.024Z,101920.77
2019-01-05T12:33:36.417Z,101927.65
2019-01-05T12:36:43.064Z,101928.48
2019-01-05T12:39:43.024Z,101931.06
2019-01-05T12:42:53.795Z,101932.36
2019-01-05T12:45:41.973Z,101938.73
2019-01-05T12:48:43.783Z,101943.36
2019-01-05T12:51:31.877Z,101948.41
2019-01-05T12:54:42.731Z,101953.36
2019-01-05T12:57:27.917Z,101956.28
2019-01-05T13:00:09.921Z,101961.41
2019-01-05T13:03:13.478Z,101962.20
2019-01-05T13:06:22.426Z,101958.27
2019-01-05T13:09:27.210Z,101968.98
2019-01-05T13:12:22.974Z,101980.62
2019-01-05T13:14:58.870Z,101978.31
2019-01-05T13:17:48.585Z,101981.64
2019-01-05T13:20:30.458Z,102002.19
2019-01-05T13:23:44.746Z,101998.42
2019-01-05T13:26:34.434Z,101997.80
2019-01-05T13:29:16.644Z,102007.44
2019-01-05T13:32:39.593Z,102005.05
2019-01-05T13:35:47.524Z,102004.78
2019-01-05T13:38:59.472Z,102012.63
2019-01-05T13:41:58.088Z,102018.81
2019-01-05T13:44:40.004Z,102011.30
2019-01-05T13:47:47.617Z,102019.23
2019-01-05T13:50:42.166Z,102026.34
2019-01-05T13:53:23.621Z,102021.77
2019-01-05T13:56:13.245Z,102024.07
2019-01-05T13:58:55.601Z,102025.04
2019-01-05T14:01:41.981Z,102035.69
2019-01-05T14:04:28.491Z,102032.50
2019-01-05T14:07:04.555Z,102039.36
2019-01-05T14:09:51.057Z,102041.84
2019-01-05T14:12:33.016Z,102038.80
2019-01-05T14:15:08.585Z,102039.18
2019-01-05T14:17:44.148Z,102040.47
2019-01-05T14:20:23.265Z,102036.59
2019-01-05T14:23:09.786Z,102044.34
2019-01-05T14:25:56.285Z,102049.59
2019-01-05T14:28:38.394Z,102049.27
2019-01-05T14:31:11.129Z,102051.84
2019-01-05T14:33:56.377Z,102052.72
2019-01-05T14:36:26.456Z,102047.56
2019-01-05T14:39:13.092Z,102052.81
2019-01-05T14:41:59.354Z,102053.60
2019-01-05T14:44:41.665Z,102064.25
2019-01-05T14:47:30.181Z,102066.12
2019-01-05T14:50:12.321Z,102074.86
2019-01-05T14:52:42.432Z,102068.96
2019-01-05T14:55:21.582Z,102072.27
2019-01-05T14:58:08.131Z,102071.66
2019-01-05T15:00:47.424Z,102083.48
2019-01-05T15:03:33.914Z,102083.34
2019-01-05T15:06:04.022Z,102089.54
2019-01-05T15:08:37.295Z,102091.55
2019-01-05T15:11:13.334Z,102093.98
2019-01-05T15:13:43.411Z,102092.04
2019-01-05T15:16:29.721Z,102096.72
2019-01-05T15:18:59.801Z,102098.73
2019-01-05T15:21:38.809Z,102103.65
2019-01-05T15:24:08.883Z,102101.33
2019-01-05T15:26:47.984Z,102110.09
2019-01-05T15:29:18.067Z,102109.44
2019-01-05T15:32:00.046Z,102112.83
2019-01-05T15:34:46.524Z,102123.87
2019-01-05T15:37:25.356Z,102120.31
2019-01-05T15:40:07.668Z,102131.81
2019-01-05T15:42:47.389Z,102128.77
2019-01-05T15:45:34.058Z,102141.66
2019-01-05T15:48:07.098Z,102145.36
2019-01-05T15:50:53.669Z,102144.38
2019-01-05T15:53:26.500Z,102149.07
2019-01-05T15:56:12.795Z,102150.26
2019-01-05T15:58:52.103Z,102154.94
2019-01-05T16:01:37.538Z,102158.30
2019-01-05T16:04:10.270Z,102160.09
2019-01-05T16:06:46.187Z,102161.86
2019-01-05T16:09:20.005Z,102167.58
2019-01-05T16:12:06.378Z,102172.33
2019-01-05T16:14:48.736Z,102177.58
2019-01-05T16:17:21.708Z,102177.17
2019-01-05T16:20:08.002Z,102174.19
2019-01-05T16:22:38.238Z,102176.77
2019-01-05T16:25:26.233Z,102181.91
2019-01-05T16:27:58.973Z,102177.98
2019-01-05T16:30:40.962Z,102178.20
2019-01-05T16:33:27.137Z,102183.29
2019-01-05T16:36:00.172Z,102179.33
2019-01-05T16:38:38.766Z,102184.17
2019-01-05T16:41:25.071Z,102183.86
2019-01-05T16:44:07.272Z,102180.00
2019-01-05T16:46:49.666Z,102182.06
2019-01-05T16:49:36.340Z,102188.81
2019-01-05T16:52:09.044Z,102182.21
2019-01-05T16:54:57.519Z,102185.09
2019-01-05T16:57:42.599Z,102192.26
2019-01-05T17:00:13.536Z,102192.20
2019-01-05T17:02:59.795Z,102188.12
2019-01-05T17:05:35.854Z,102197.08
2019-01-05T17:08:12.226Z,102199.09
2019-01-05T17:10:45.215Z,102201.56
2019-01-05T17:13:27.303Z,102199.30
2019-01-05T17:16:12.424Z,102210.41
2019-01-05T17:18:45.494Z,102201.30
2019-01-05T17:21:27.610Z,102209.37
2019-01-05T17:24:12.575Z,102207.58
2019-01-05T17:26:58.898Z,102200.87
2019-01-05T17:29:45.166Z,102204.36
2019-01-05T17:32:17.926Z,102212.05
2019-01-05T17:34:48.033Z,102213.37
2019-01-05T17:37:29.981Z,102214.80
2019-01-05T17:40:03.017Z,102220.48
2019-01-05T17:42:35.765Z,102226.55
2019-01-05T17:45:21.508Z,102224.41
2019-01-05T17:48:07.832Z,102223.17
2019-01-05T17:50:37.929Z,102228.75
2019-01-05T17:53:13.956Z,102232.16
2019-01-05T17:55:46.902Z,102241.17
2019-01-05T17:58:32.998Z,102243.28
2019-01-05T18:01:09.037Z,102251.42
2019-01-05T18:03:55.640Z,102252.64
2019-01-05T18:06:42.171Z,102264.55
2019-01-05T18:09:17.755Z,102264.55
2019-01-05T18:12:05.907Z,102267.93
2019-01-05T18:14:52.108Z,102272.11
2019-01-05T18:17:38.515Z,102270.52
2019-01-05T18:20:24.727Z,102270.22
2019-01-05T18:23:12.412Z,102270.22
2019-01-05T18:25:48.496Z,102275.75
2019-01-05T18:28:24.900Z,102277.14
2019-01-05T18:31:09.735Z,102277.14
2019-01-05T18:33:39.815Z,102272.98
2019-01-05T18:36:09.924Z,102265.87
2019-01-05T18:38:42.699Z,102272.38
2019-01-05T18:41:21.449Z,102276.73
2019-01-05T18:44:10.036Z,102276.50
2019-01-05T18:46:40.129Z,102276.50
2019-01-05T18:49:25.016Z,102279.77
2019-01-05T18:51:57.883Z,102279.77
2019-01-05T18:54:31.024Z,102286.66
2019-01-05T18:57:17.589Z,102286.66
2019-01-05T18:59:47.805Z,102285.55
2019-01-05T19:02:30.091Z,102282.19
2019-01-05T19:05:16.547Z,102279.88
2019-01-05T19:07:58.670Z,102279.88
2019-01-05T19:10:34.992Z,102284.72
2019-01-05T19:13:05.071Z,102284.69
2019-01-05T19:15:46.890Z,102290.89
2019-01-05T19:18:19.601Z,102296.98
2019-01-05T19:20:58.635Z,102303.20
2019-01-05T19:23:56.328Z,102303.76
2019-01-05T19:26:42.794Z,102305.11
2019-01-05T19:29:12.873Z,102302.74
2019-01-05T19:31:45.690Z,102298.57
2019-01-05T19:34:20.193Z,102304.86
2019-01-05T19:36:50.313Z,102309.11
2019-01-05T19:39:36.480Z,102309.11
2019-01-05T19:42:21.572Z,102309.38
2019-01-05T19:44:54.538Z,102307.70
2019-01-05T19:47:36.625Z,102309.27
2019-01-05T19:50:19.368Z,102309.27
2019-01-05T19:52:58.638Z,102312.44
2019-01-05T19:55:43.830Z,102303.45
2019-01-05T19:58:13.932Z,102307.35
2019-01-05T20:00:49.963Z,102301.75
2019-01-05T20:03:38.177Z,102307.33
2019-01-05T20:06:15.436Z,102303.80
2019-01-05T20:08:51.790Z,102311.90
2019-01-05T20:11:38.356Z,102309.66
2019-01-05T20:14:08.442Z,102306.41
2019-01-05T20:16:53.571Z,102306.41
2019-01-05T20:19:26.328Z,102318.27
2019-01-05T20:21:56.448Z,102322.13
2019-01-05T20:24:32.493Z,102322.13
2019-01-05T20:27:08.931Z,102328.54
2019-01-05T20:29:39.069Z,102318.84
2019-01-05T20:32:27.290Z,102318.84
2019-01-05T20:34:57.372Z,102332.19
2019-01-05T20:37:43.835Z,102321.00
2019-01-05T20:40:19.585Z,102326.21
2019-01-05T20:42:52.361Z,102330.98
2019-01-05T20:45:28.221Z,102336.39
2019-01-05T20:48:01.241Z,102333.83
2019-01-05T20:50:34.036Z,102332.91
2019-01-05T20:53:13.100Z,102329.73
2019-01-05T20:55:52.063Z,102332.89
2019-01-05T20:58:38.389Z,102332.89
2019-01-05T21:01:08.473Z,102331.22
2019-01-05T21:03:38.585Z,102333.97
2019-01-05T21:06:08.661Z,102337.58
2019-01-05T21:08:38.768Z,102335.81
2019-01-05T21:11:11.543Z,102347.36
2019-01-05T21:13:58.193Z,102347.36
2019-01-05T21:16:28.278Z,102335.48
2019-01-05T21:18:58.381Z,102341.14
2019-01-05T21:21:34.666Z,102342.30
2019-01-05T21:24:21.197Z,102352.56
2019-01-05T21:27:07.529Z,102349.99
2019-01-05T21:29:38.307Z,102354.33
2019-01-05T21:35:24.191Z,102351.74
2019-01-05T21:38:02.008Z,102351.74
2019-01-05T21:40:40.729Z,102347.97
2019-01-05T21:43:27.201Z,102345.56
2019-01-05T21:46:13.659Z,102350.08
2019-01-05T21:49:00.129Z,102364.38
2019-01-05T21:51:46.422Z,102367.09
2019-01-05T21:54:19.660Z,102359.46
2019-01-05T21:56:52.701Z,102356.56
2019-01-05T21:59:35.047Z,102355.95
2019-01-05T22:02:05.136Z,102355.53
2019-01-05T22:04:38.222Z,102356.99
2019-01-05T22:07:11.224Z,102360.98
2019-01-05T22:09:47.637Z,102365.02
2019-01-05T22:12:26.648Z,102360.83
2019-01-05T22:15:12.745Z,102355.55
2019-01-05T22:17:42.834Z,102360.95
2019-01-05T22:20:29.452Z,102364.57
2019-01-05T22:23:11.646Z,102368.95
2019-01-05T22:25:41.761Z,102372.19
2019-01-05T22:28:14.552Z,102373.34
2019-01-05T22:30:44.663Z,102373.25
2019-01-05T22:33:30.920Z,102376.47
2019-01-05T22:36:17.231Z,102374.67
2019-01-05T22:38:47.316Z,102377.02
2019-01-05T22:41:17.434Z,102375.61
2019-01-05T22:43:47.524Z,102379.09
2019-01-05T22:46:35.921Z,102376.52
2019-01-05T22:49:21.913Z,102381.91
2019-01-05T22:51:54.958Z,102381.17
2019-01-05T22:54:25.048Z,102377.51
2019-01-05T22:57:07.162Z,102376.77
2019-01-05T22:59:53.662Z,102383.70
2019-01-05T23:02:23.770Z,102383.38
2019-01-05T23:04:53.855Z,102392.48
2019-01-05T23:07:23.962Z,102397.25
2019-01-05T23:09:54.049Z,102399.84
2019-01-05T23:12:40.749Z,102402.97
2019-01-05T23:15:25.834Z,102405.66
2019-01-05T23:18:12.401Z,102416.30
2019-01-05T23:20:42.495Z,102412.45
2019-01-05T23:23:24.829Z,102418.46
2019-01-05T23:26:11.152Z,102420.27
2019-01-05T23:28:53.288Z,102420.63
2019-01-05T23:31:26.254Z,102427.42
2019-01-05T23:34:11.269Z,102426.92
2019-01-05T23:36:44.336Z,102427.32
2019-01-05T23:39:30.833Z,102432.54
2019-01-05T23:42:00.913Z,102431.26
2019-01-05T23:44:31.022Z,102431.26
2019-01-05T23:47:01.099Z,102425.75
2019-01-05T23:49:31.237Z,102431.00
2019-01-05T23:52:04.113Z,102432.41
2019-01-05T23:54:37.034Z,102435.59
2019-01-05T23:57:09.796Z,102434.92
2019-01-05T23:59:39.901Z,102444.60
